カーディフ の空港の天気 - METARとTAF

カーディフ空港 ( EGFF / CWL ) - イギリス カーディフ
飛行場実況気象(Metar)
観測時間11/24 17:20 GMT (11/24 17:20 UTC)
風向・風速南 5m/s
視程10km以上
天気現象
全天の4割程度の雲 雲底高度 580m
全天を覆う雲 雲底高度 1340m
気温12℃
湿度94%
気圧1009hPa
METAREGFF 241720Z AUTO 17010KT 9999 SCT019 OVC044 12/11 Q1009
過去の天気等 Google飛行場航空写真 Wunderground天気予報

過去48時間のMETAR

飛行場予報(TAF)
発表時間: 11/24 16:59 GMT (11/24 16:59 UTC)
予報対象時間: 24日18時 GMT ~ 25日18時 GMT
風向・風速南 5m/s
視程10km以上
少しの雲 雲底高度 400m
全天の8割程度の雲 雲底高度 760m
24日18時 GMT ~ 24日23時 GMT に一時的に
視程8000m
天気現象弱い霧雨
全天の8割程度の雲 雲底高度 370m
24日23時 GMT ~ 25日13時 GMT に一時的に
視程3000m
天気現象雨霧雨
全天の8割程度の雲 雲底高度 210m
25日2時 GMT ~ 25日5時 GMT に徐々に
風向・風速西 4m/s
25日5時 GMT ~ 25日10時 GMT に 確率 30% で一時的に
全天の8割程度の雲 雲底高度 120m
TAF EGFF 241659Z 2418/2518 17010KT 9999 FEW013 BKN025
TEMPO 2418/2423 8000 -DZ BKN012
TEMPO 2423/2513 3000 RADZ BKN007
BECMG 2502/2505 27007KT
PROB30 TEMPO 2505/2510 BKN004